Current | Forecast
Updated: 10:50 PM BST on October 16, 2017
Observed at Humberside, United Kingdom
Temperature 57°F
Humidity 63%
Dew Point 45°F
Wind SW at 30 mph
Pressure 29.83 in (Steady)
Conditions Scattered Clouds
Visibility 6.2 miles
UV 0 out of 16
Clouds Scattered Clouds (SCT) : 4400 ft
Yesterday's Maximum 64°F
Yesterday's Minimum 55°F approx.
Yesterday's Heating Degree Days 5 approx.
Sunrise7:30 AM BST
Sunset6:02 PM BST
Moon Rise3:10 AM BST
Moon Set5:12 PM BST
Moon PhaseMoon Phase
Waning Crescent
Raw METARMETAR EGXP 162150Z AUTO 22026KT 9999 // SCT044/// 14/07 Q1010


Monday
. High: 62° F.
Tuesday
. High: 62° F.
Wednesday
. High: 60° F.
Thursday
. High: 51° F.
Friday
. High: 55° F.
Saturday
. High: 60° F.
Sunday
. High: 57° F.
Monday
. High: 66° F.

Units: English | Metric

Find the Weather for any City, State or Zipcode, or Country:

U.S. State List | Severe Weather | Tropical Storms | Ski Conditions
United States | Canada | Central America | South America | Asia | Europe | Australia | Africa | Islands

Weather Underground

© Copyright 2017
The Weather Company, LLC